Time;durP1;ratioP1;P1;durP2;ratioP2;P2;SDS_P1;SDS_P2;PMS_P1;PMS_P2;Temp;Humidity;BMP_temperature;BMP_pressure;BME280_temperature;BME280_humidity;BME280_pressure;Samples;Min_cycle;Max_cycle;Signal;HPM_P1;HPM_P2
2022/11/04 00:01:38;;;;;;;19.48;14.95;;;11.90;99.90;;;;;;4994110;28;20539;-73
2022/11/04 00:04:04;;;;;;;21.98;16.73;;;12.10;99.90;;;;;;4995196;28;20046;-73
2022/11/04 00:06:29;;;;;;;18.88;14.48;;;12.00;99.90;;;;;;4993932;28;20053;-73
2022/11/04 00:08:58;;;;;;;20.00;14.05;;;11.90;99.90;;;;;;4994018;28;20039;-73
2022/11/04 00:14:10;;;;;;;19.02;14.20;;;11.90;99.90;;;;;;4995077;28;20045;-73
2022/11/04 00:19:21;;;;;;;18.02;14.50;;;11.90;99.90;;;;;;4995064;28;20061;-73
2022/11/04 00:30:08;;;;;;;19.92;14.60;;;11.90;99.90;;;;;;4993501;28;20129;-73
2022/11/04 00:35:19;;;;;;;17.17;14.13;;;11.70;99.90;;;;;;4994717;28;20045;-73
2022/11/04 00:37:44;;;;;;;19.42;14.65;;;11.90;99.90;;;;;;4993222;28;20100;-73
2022/11/04 00:40:13;;;;;;;18.50;13.35;;;11.90;99.90;;;;;;4993336;28;20038;-73
2022/11/04 00:42:39;;;;;;;16.70;13.25;;;12.00;99.90;;;;;;4993011;28;20089;-73
2022/11/04 00:45:06;;;;;;;18.25;12.70;;;12.00;99.90;;;;;;4994752;28;20103;-73
2022/11/04 00:47:31;;;;;;;18.90;14.82;;;11.70;99.90;;;;;;4993336;28;20057;-74
2022/11/04 00:49:57;;;;;;;18.75;13.77;;;11.80;99.90;;;;;;4993090;28;20050;-73
2022/11/04 00:52:23;;;;;;;15.88;13.25;;;11.90;99.90;;;;;;4992875;28;20050;-74
2022/11/04 00:54:48;;;;;;;14.25;11.95;;;11.80;99.90;;;;;;4994410;28;20038;-73
2022/11/04 00:57:14;;;;;;;10.70;7.07;;;12.00;99.90;;;;;;4993006;28;20497;-74
2022/11/04 00:59:40;;;;;;;8.43;6.15;;;11.90;99.90;;;;;;4992435;28;20038;-74
2022/11/04 01:02:08;;;;;;;6.25;5.38;;;11.70;99.90;;;;;;4988894;28;20045;-74
2022/11/04 01:04:33;;;;;;;4.10;2.97;;;11.70;99.90;;;;;;4992772;28;20084;-74
2022/11/04 01:06:59;;;;;;;3.90;3.13;;;11.70;99.90;;;;;;4993209;28;20460;-73
2022/11/04 01:09:25;;;;;;;5.25;3.10;;;11.50;99.90;;;;;;4992832;28;20554;-73
2022/11/04 01:11:50;;;;;;;4.95;2.90;;;11.40;99.90;;;;;;4992999;28;20400;-74
2022/11/04 01:14:16;;;;;;;2.97;2.25;;;11.50;99.90;;;;;;4992444;28;20030;-74
2022/11/04 01:16:42;;;;;;;5.47;2.88;;;11.30;99.90;;;;;;4992757;28;20042;-73
2022/11/04 01:19:09;;;;;;;5.38;2.47;;;11.20;99.90;;;;;;4992529;28;20106;-73
2022/11/04 01:21:34;;;;;;;7.07;2.47;;;11.30;99.90;;;;;;4993874;28;20217;-73
2022/11/04 01:24:00;;;;;;;8.43;2.40;;;11.50;99.90;;;;;;4992609;28;20480;-74
2022/11/04 01:26:27;;;;;;;3.47;1.60;;;11.40;99.90;;;;;;4992497;28;20038;-73
2022/11/04 01:28:54;;;;;;;2.58;1.33;;;11.40;99.90;;;;;;4992360;28;20056;-74
2022/11/04 01:31:25;;;;;;;3.97;1.40;;;11.30;99.90;;;;;;4992725;28;20408;-74
2022/11/04 01:33:52;;;;;;;3.67;1.10;;;11.40;99.90;;;;;;4992374;28;20050;-73
2022/11/04 01:36:18;;;;;;;3.58;1.60;;;11.30;99.90;;;;;;4992374;28;20050;-73
2022/11/04 01:38:44;;;;;;;3.13;0.82;;;11.20;99.90;;;;;;4992173;28;20046;-73
2022/11/04 01:41:23;;;;;;;2.75;0.93;;;11.10;99.90;;;;;;4992277;28;20415;-74
2022/11/04 01:43:56;;;;;;;1.25;0.63;;;11.30;99.90;;;;;;4991837;28;20110;-73
2022/11/04 01:46:36;;;;;;;2.13;1.20;;;11.00;99.90;;;;;;4992179;28;20046;-74
2022/11/04 01:49:26;;;;;;;3.63;1.02;;;11.20;99.90;;;;;;4992178;28;20086;-74
2022/11/04 01:51:58;;;;;;;3.90;1.45;;;11.10;99.90;;;;;;4986473;28;20483;-73
2022/11/04 01:54:24;;;;;;;4.32;1.50;;;11.30;99.90;;;;;;4991651;28;20504;-74
2022/11/04 01:56:50;;;;;;;2.40;1.65;;;11.30;99.90;;;;;;4993096;28;20043;-73
2022/11/04 01:59:24;;;;;;;3.72;1.20;;;11.20;99.90;;;;;;4991325;28;20049;-73
2022/11/04 02:01:50;;;;;;;2.97;1.10;;;11.30;99.90;;;;;;4993188;28;20085;-73
2022/11/04 02:04:25;;;;;;;4.78;1.73;;;11.30;99.90;;;;;;4991595;28;20042;-74
2022/11/04 02:06:57;;;;;;;2.22;1.35;;;11.10;99.90;;;;;;5008325;28;20053;-74
2022/11/04 02:09:24;;;;;;;3.20;1.00;;;11.00;99.90;;;;;;4992984;28;20042;-74
2022/11/04 02:14:34;;;;;;;5.30;1.30;;;11.10;99.90;;;;;;4991384;28;20089;-74
2022/11/04 02:17:24;;;;;;;4.05;1.00;;;11.00;99.90;;;;;;4991655;28;20508;-73
2022/11/04 02:20:06;;;;;;;3.70;0.85;;;11.00;99.90;;;;;;4991045;28;20054;-74
2022/11/04 02:22:48;;;;;;;4.47;0.93;;;11.20;99.90;;;;;;4991246;28;20045;-74
2022/11/04 02:25:31;;;;;;;3.08;0.80;;;11.00;99.90;;;;;;4991426;28;20075;-74
2022/11/04 02:28:21;;;;;;;1.30;0.47;;;11.10;99.90;;;;;;4992975;28;20042;-74
2022/11/04 02:30:53;;;;;;;3.63;0.80;;;11.00;99.90;;;;;;4991483;28;20046;-74
2022/11/04 02:33:44;;;;;;;5.45;0.60;;;11.10;99.90;;;;;;4992683;28;20054;-74
2022/11/04 02:36:41;;;;;;;6.80;1.17;;;11.10;99.90;;;;;;4992688;28;20038;-74
2022/11/04 02:39:40;;;;;;;8.48;0.90;;;11.00;99.90;;;;;;4991269;28;20082;-74
2022/11/04 02:42:16;;;;;;;4.25;1.08;;;11.10;99.90;;;;;;4975322;28;20043;-74
2022/11/04 02:44:57;;;;;;;2.78;0.70;;;11.10;99.90;;;;;;4991399;28;20562;-74
2022/11/04 02:47:27;;;;;;;1.45;0.60;;;11.10;99.90;;;;;;4990590;28;20049;-75
2022/11/04 02:50:15;;;;;;;4.13;0.82;;;11.00;99.90;;;;;;4974896;28;20034;-73
2022/11/04 02:52:49;;;;;;;4.07;0.90;;;10.80;99.90;;;;;;4989845;28;20038;-74
2022/11/04 02:55:24;;;;;;;4.43;0.88;;;11.00;99.90;;;;;;4991142;28;20043;-75
2022/11/04 02:57:52;;;;;;;5.38;0.65;;;11.10;99.90;;;;;;4991082;28;20053;-74
2022/11/04 03:00:20;;;;;;;4.97;0.90;;;10.80;99.90;;;;;;4991012;28;20038;-74
2022/11/04 03:03:08;;;;;;;4.82;0.60;;;11.00;99.90;;;;;;4990660;28;20511;-74
2022/11/04 03:05:37;;;;;;;5.90;1.27;;;11.10;99.90;;;;;;4990760;28;20113;-74
2022/11/04 03:08:13;;;;;;;1.48;0.50;;;10.90;99.90;;;;;;4991451;28;20057;-74
2022/11/04 03:10:46;;;;;;;5.07;0.80;;;11.00;99.90;;;;;;4992319;28;20404;-73
2022/11/04 03:13:20;;;;;;;4.90;0.70;;;11.10;99.90;;;;;;4990754;28;20057;-74
2022/11/04 03:15:56;;;;;;;4.13;1.00;;;11.10;99.90;;;;;;4992365;28;20117;-74
2022/11/04 03:18:53;;;;;;;4.68;0.77;;;11.00;99.90;;;;;;4992202;28;20046;-74
2022/11/04 03:21:20;;;;;;;2.42;0.70;;;11.10;99.90;;;;;;4991053;28;20114;-73
2022/11/04 03:23:46;;;;;;;4.22;0.70;;;10.90;99.90;;;;;;4993953;28;20459;-73
2022/11/04 03:26:28;;;;;;;5.03;0.68;;;11.10;99.90;;;;;;4996040;28;20046;-74
2022/11/04 03:29:03;;;;;;;3.77;1.30;;;11.00;99.90;;;;;;4994687;28;20046;-74
2022/11/04 03:31:41;;;;;;;4.78;0.75;;;11.00;99.90;;;;;;4978749;28;20050;-74
2022/11/04 03:34:07;;;;;;;3.08;0.82;;;11.10;99.90;;;;;;4994742;28;20100;-74
2022/11/04 03:36:33;;;;;;;4.57;0.90;;;10.80;99.90;;;;;;5016827;23;20045;-72
2022/11/04 03:38:59;;;;;;;6.00;0.70;;;10.90;99.90;;;;;;5016852;28;20464;-71
2022/11/04 03:41:54;;;;;;;3.65;1.15;;;11.10;99.90;;;;;;5016032;28;20026;-71
2022/11/04 03:44:20;;;;;;;4.15;0.70;;;10.90;99.90;;;;;;4998191;28;20041;-71
2022/11/04 03:46:46;;;;;;;2.50;0.60;;;11.00;99.90;;;;;;5015626;28;20041;-71
2022/11/04 03:49:12;;;;;;;4.13;0.80;;;11.10;99.90;;;;;;5013769;28;20045;-71
2022/11/04 03:51:38;;;;;;;4.90;0.68;;;10.90;99.90;;;;;;5015804;28;20041;-71
2022/11/04 03:54:04;;;;;;;4.57;0.95;;;11.00;99.90;;;;;;5015307;28;20034;-71
2022/11/04 03:57:09;;;;;;;2.63;0.50;;;10.90;99.90;;;;;;5013978;28;20042;-71
2022/11/04 04:00:05;;;;;;;1.27;0.63;;;10.80;99.90;;;;;;5014397;28;20046;-71
2022/11/04 04:02:48;;;;;;;3.38;0.82;;;10.90;99.90;;;;;;5014469;28;20380;-71
2022/11/04 04:05:28;;;;;;;3.47;1.00;;;11.00;99.90;;;;;;5014294;28;20045;-71
2022/11/04 04:08:12;;;;;;;2.92;0.60;;;11.00;99.90;;;;;;5014241;28;20292;-72
2022/11/04 04:10:41;;;;;;;2.92;0.80;;;10.90;99.90;;;;;;5014726;28;20400;-71
2022/11/04 04:13:32;;;;;;;3.83;1.30;;;10.80;99.90;;;;;;5015264;28;20050;-71
2022/11/04 04:16:11;;;;;;;2.58;0.60;;;11.00;99.90;;;;;;5015555;28;20045;-71
2022/11/04 04:18:43;;;;;;;0.93;0.55;;;10.90;99.90;;;;;;5015958;28;20484;-71
2022/11/04 04:21:13;;;;;;;2.03;0.70;;;11.00;99.90;;;;;;5016272;28;20045;-71
2022/11/04 04:29:10;;;;;;;8.23;0.90;;;10.90;99.90;;;;;;5014020;28;20078;-71
2022/11/04 04:31:49;;;;;;;2.10;0.80;;;10.80;99.90;;;;;;5015291;28;20069;-71
2022/11/04 04:34:21;;;;;;;2.42;1.02;;;10.80;99.90;;;;;;5012517;28;20033;-71
2022/11/04 04:36:54;;;;;;;3.50;1.23;;;10.80;99.90;;;;;;5014930;28;20048;-74
2022/11/04 04:45:03;;;;;;;4.00;1.10;;;10.90;99.90;;;;;;5013148;28;20064;-73
2022/11/04 04:47:35;;;;;;;3.47;1.20;;;11.00;99.90;;;;;;5013074;28;20096;-73
2022/11/04 04:50:01;;;;;;;4.75;1.40;;;10.90;99.90;;;;;;5013372;28;20439;-74
2022/11/04 04:52:30;;;;;;;6.30;1.98;;;10.90;99.90;;;;;;5012533;28;20045;-73
2022/11/04 04:54:56;;;;;;;3.72;1.02;;;10.80;99.90;;;;;;5012725;28;20038;-73
2022/11/04 04:57:21;;;;;;;2.92;1.10;;;10.80;99.90;;;;;;5012503;28;20416;-73
2022/11/04 04:59:47;;;;;;;3.28;0.90;;;10.90;99.90;;;;;;5012501;28;20495;-74
2022/11/04 05:02:13;;;;;;;6.40;1.20;;;10.70;99.90;;;;;;5012651;28;20041;-74
2022/11/04 05:04:38;;;;;;;5.68;0.90;;;10.90;99.90;;;;;;4996288;28;20049;-73
2022/11/04 05:07:05;;;;;;;3.22;0.77;;;10.70;99.90;;;;;;5012309;28;20042;-73
2022/11/04 05:09:31;;;;;;;3.92;0.80;;;10.70;99.90;;;;;;5013784;28;20038;-74
2022/11/04 05:11:57;;;;;;;1.98;0.80;;;10.70;99.90;;;;;;5013553;28;20111;-73
2022/11/04 05:14:22;;;;;;;1.13;0.55;;;10.60;99.90;;;;;;5013612;28;20081;-73
2022/11/04 05:16:48;;;;;;;2.80;0.60;;;10.60;99.90;;;;;;5012342;28;20038;-73
2022/11/04 05:19:13;;;;;;;4.32;0.57;;;10.70;99.90;;;;;;5012191;28;20511;-71
2022/11/04 05:21:39;;;;;;;2.42;0.60;;;10.60;99.90;;;;;;5013486;28;20034;-71
2022/11/04 05:24:04;;;;;;;1.52;0.60;;;10.70;99.90;;;;;;5011574;28;20503;-71
2022/11/04 05:26:30;;;;;;;3.20;0.47;;;10.50;99.90;;;;;;5013102;28;20046;-71
2022/11/04 05:28:55;;;;;;;6.65;0.90;;;10.60;99.90;;;;;;5011677;28;20096;-71
2022/11/04 05:31:21;;;;;;;6.10;0.70;;;10.60;99.90;;;;;;5011808;28;20046;-71
2022/11/04 05:33:46;;;;;;;3.45;0.60;;;10.40;99.90;;;;;;4995304;28;20526;-71
2022/11/04 05:36:14;;;;;;;3.88;0.60;;;10.50;99.90;;;;;;5012750;28;20117;-71
2022/11/04 05:38:41;;;;;;;3.03;0.50;;;10.50;99.90;;;;;;5012880;28;20042;-71
2022/11/04 05:41:08;;;;;;;3.13;0.80;;;10.50;99.90;;;;;;5011651;28;20045;-71
2022/11/04 05:43:34;;;;;;;2.08;0.73;;;10.40;99.90;;;;;;5012616;28;20512;-71
2022/11/04 05:46:00;;;;;;;3.35;0.70;;;10.50;99.90;;;;;;5012706;28;20053;-71
2022/11/04 05:48:26;;;;;;;4.15;0.70;;;10.30;99.90;;;;;;5011539;28;20100;-71
2022/11/04 05:50:52;;;;;;;2.15;0.80;;;10.40;99.90;;;;;;5011566;28;20033;-71
2022/11/04 05:53:17;;;;;;;2.75;0.50;;;10.50;99.90;;;;;;5011136;28;20092;-71
2022/11/04 05:55:44;;;;;;;4.68;0.88;;;10.40;99.90;;;;;;5012474;28;20125;-71
2022/11/04 05:58:09;;;;;;;2.65;0.60;;;10.40;99.90;;;;;;5012769;28;20044;-71
2022/11/04 06:00:35;;;;;;;4.40;0.88;;;10.30;99.90;;;;;;5012702;28;20034;-71
2022/11/04 06:03:00;;;;;;;2.75;0.98;;;10.30;99.90;;;;;;5012291;28;20085;-71
2022/11/04 06:05:27;;;;;;;2.97;0.63;;;10.10;99.90;;;;;;5011179;28;20044;-71
2022/11/04 06:07:53;;;;;;;5.57;0.80;;;10.10;99.90;;;;;;5011138;28;20053;-71
2022/11/04 06:10:19;;;;;;;4.70;0.80;;;10.10;99.90;;;;;;5012269;28;20467;-71
2022/11/04 06:12:44;;;;;;;4.07;0.65;;;10.10;99.90;;;;;;5012397;28;20065;-71
2022/11/04 06:15:10;;;;;;;4.93;0.82;;;10.00;99.90;;;;;;5010930;28;20033;-71
2022/11/04 06:17:36;;;;;;;3.15;0.90;;;10.00;99.90;;;;;;5011205;28;20399;-71
2022/11/04 06:20:03;;;;;;;3.78;0.90;;;10.20;99.90;;;;;;5012278;28;20092;-71
2022/11/04 06:22:28;;;;;;;4.00;1.10;;;10.10;99.90;;;;;;5011233;28;20381;-71
2022/11/04 06:24:54;;;;;;;2.55;0.85;;;10.00;99.90;;;;;;5011249;28;20092;-71
2022/11/04 06:27:19;;;;;;;3.53;1.00;;;9.90;99.90;;;;;;5012335;28;20492;-71
2022/11/04 06:29:46;;;;;;;2.10;0.75;;;10.00;99.90;;;;;;5010888;28;20060;-71
2022/11/04 06:32:14;;;;;;;5.80;0.80;;;10.00;99.90;;;;;;5010822;28;20088;-71
2022/11/04 06:34:39;;;;;;;2.63;0.93;;;10.10;99.90;;;;;;5011923;28;20038;-71
2022/11/04 06:37:06;;;;;;;1.95;0.75;;;9.90;99.90;;;;;;5012005;28;20187;-71
2022/11/04 06:39:31;;;;;;;1.08;0.60;;;9.90;99.90;;;;;;5010668;28;20124;-71
2022/11/04 06:41:57;;;;;;;2.65;1.05;;;10.00;99.90;;;;;;5010713;28;20147;-71
2022/11/04 06:44:23;;;;;;;5.53;0.90;;;9.90;99.90;;;;;;5011851;28;20050;-71
2022/11/04 06:46:49;;;;;;;1.55;0.75;;;10.00;99.90;;;;;;5010791;28;20041;-71
2022/11/04 06:49:17;;;;;;;3.10;0.93;;;9.90;99.90;;;;;;5011618;28;20068;-71
2022/11/04 06:51:43;;;;;;;7.40;1.17;;;9.90;99.90;;;;;;5011870;28;20033;-71
2022/11/04 06:54:09;;;;;;;2.03;1.10;;;10.00;99.90;;;;;;4993920;28;20081;-71
2022/11/04 06:56:35;;;;;;;5.95;1.10;;;10.00;99.90;;;;;;5011577;28;20092;-71
2022/11/04 06:59:00;;;;;;;2.58;0.80;;;9.80;99.90;;;;;;5010338;28;20125;-71
2022/11/04 07:01:29;;;;;;;4.22;1.10;;;9.90;99.90;;;;;;5011885;28;20322;-71
2022/11/04 07:03:57;;;;;;;3.53;1.20;;;9.80;99.90;;;;;;4993846;28;20117;-71
2022/11/04 07:06:24;;;;;;;4.25;1.20;;;10.00;99.90;;;;;;5011671;28;20034;-71
2022/11/04 07:08:51;;;;;;;4.15;1.52;;;9.80;99.90;;;;;;5013309;28;20416;-71
2022/11/04 07:11:19;;;;;;;2.40;1.30;;;9.80;99.90;;;;;;5019782;28;20073;-70
2022/11/04 07:13:46;;;;;;;2.75;1.45;;;9.80;99.90;;;;;;5016650;28;20038;-71
2022/11/04 07:16:11;;;;;;;2.47;0.85;;;9.90;99.90;;;;;;5021350;28;20037;-71
2022/11/04 07:18:37;;;;;;;5.88;2.15;;;9.90;99.90;;;;;;5021432;28;20095;-71
2022/11/04 07:21:03;;;;;;;3.90;0.90;;;10.00;99.90;;;;;;5030959;28;20068;-71
2022/11/04 07:23:29;;;;;;;2.60;1.45;;;9.80;99.90;;;;;;5029819;28;20049;-70
2022/11/04 07:26:00;;;;;;;2.00;1.00;;;9.90;99.90;;;;;;5031626;28;20072;-70
2022/11/04 07:28:25;;;;;;;4.10;0.90;;;10.20;99.90;;;;;;5032114;28;20038;-71
2022/11/04 07:30:53;;;;;;;3.38;0.88;;;10.00;99.90;;;;;;5032003;28;20042;-71
2022/11/04 07:33:19;;;;;;;1.58;0.82;;;10.00;99.90;;;;;;5032429;28;20550;-71
2022/11/04 07:35:44;;;;;;;1.90;0.70;;;10.00;99.90;;;;;;5031439;28;20048;-71
2022/11/04 07:38:10;;;;;;;4.18;0.95;;;10.00;99.90;;;;;;5029692;28;20038;-71
2022/11/04 07:40:35;;;;;;;3.95;0.80;;;10.10;99.90;;;;;;5031247;28;20111;-71
2022/11/04 07:43:01;;;;;;;2.63;1.00;;;10.20;99.90;;;;;;5030834;28;20041;-71
2022/11/04 07:45:26;;;;;;;2.75;0.90;;;10.40;99.90;;;;;;5031400;28;20068;-73
2022/11/04 07:47:52;;;;;;;4.00;0.98;;;10.50;99.90;;;;;;5031229;28;20045;-73
2022/11/04 07:50:17;;;;;;;2.72;0.93;;;10.60;99.90;;;;;;5030149;28;20049;-72
2022/11/04 07:52:43;;;;;;;2.88;0.90;;;10.70;99.90;;;;;;5030904;28;20511;-72
2022/11/04 07:55:09;;;;;;;3.17;0.88;;;10.80;99.90;;;;;;5030945;28;20060;-71
2022/11/04 07:57:35;;;;;;;3.42;0.70;;;10.90;99.90;;;;;;5030923;28;20395;-72
2022/11/04 08:00:04;;;;;;;3.88;0.90;;;11.00;99.90;;;;;;5029863;28;20484;-71
2022/11/04 08:02:31;;;;;;;3.67;1.15;;;11.10;99.90;;;;;;5029573;28;20099;-72
2022/11/04 08:04:56;;;;;;;1.98;0.80;;;11.10;99.90;;;;;;5029856;28;20144;-71
2022/11/04 08:07:22;;;;;;;2.92;0.73;;;11.30;99.90;;;;;;5029492;28;20124;-72
2022/11/04 08:09:47;;;;;;;3.72;1.00;;;11.40;99.90;;;;;;5032692;28;20037;-72
2022/11/04 08:12:13;;;;;;;1.75;0.80;;;11.40;99.90;;;;;;5022129;28;20380;-72
2022/11/04 08:14:38;;;;;;;3.90;0.88;;;11.30;99.90;;;;;;5013217;28;20033;-72
2022/11/04 08:17:04;;;;;;;3.25;0.75;;;11.30;99.90;;;;;;5013449;28;20121;-73
2022/11/04 08:19:30;;;;;;;2.88;1.20;;;11.50;99.90;;;;;;5013774;28;20045;-72
2022/11/04 08:21:55;;;;;;;1.20;0.88;;;11.20;99.90;;;;;;5014150;28;20042;-72
2022/11/04 08:24:21;;;;;;;3.17;1.10;;;11.20;99.90;;;;;;5013345;28;20064;-72
2022/11/04 08:26:47;;;;;;;4.18;0.82;;;11.10;99.90;;;;;;5013917;28;20053;-71
2022/11/04 08:29:12;;;;;;;2.90;1.02;;;11.10;99.90;;;;;;5013718;28;20041;-72
2022/11/04 08:31:39;;;;;;;1.33;0.90;;;11.20;99.90;;;;;;5015175;28;20038;-73
2022/11/04 08:34:07;;;;;;;1.77;0.90;;;11.20;99.90;;;;;;5014519;28;20049;-72
2022/11/04 08:36:35;;;;;;;3.03;1.20;;;11.10;99.90;;;;;;5014563;28;20046;-73
2022/11/04 08:39:03;;;;;;;2.22;0.85;;;11.00;99.90;;;;;;5010014;28;20499;-72
2022/11/04 08:41:30;;;;;;;5.25;1.00;;;11.10;99.90;;;;;;5014101;28;20081;-72
2022/11/04 08:43:59;;;;;;;3.22;0.90;;;10.90;99.90;;;;;;5015157;28;20488;-73
2022/11/04 08:46:26;;;;;;;1.85;1.17;;;11.10;99.90;;;;;;5014897;28;20041;-72
2022/11/04 08:48:52;;;;;;;6.18;1.65;;;10.90;99.90;;;;;;5015896;28;20042;-73
2022/11/04 08:51:21;;;;;;;6.85;0.98;;;11.10;99.90;;;;;;5015630;28;20045;-73
2022/11/04 08:53:46;;;;;;;1.90;0.77;;;11.10;99.90;;;;;;5016324;28;20071;-72
2022/11/04 08:56:19;;;;;;;3.72;0.93;;;11.00;99.90;;;;;;5015428;28;20489;-72
2022/11/04 08:58:45;;;;;;;4.25;1.52;;;11.10;99.90;;;;;;5017409;28;20061;-73
2022/11/04 09:01:11;;;;;;;2.67;1.13;;;11.20;99.90;;;;;;5015981;28;20125;-73
2022/11/04 09:03:38;;;;;;;4.60;1.00;;;11.20;99.90;;;;;;5017301;28;20034;-73
2022/11/04 09:06:06;;;;;;;3.33;1.00;;;11.00;99.90;;;;;;4998593;28;20046;-72
2022/11/04 09:08:31;;;;;;;3.22;0.75;;;11.00;99.90;;;;;;5013972;28;20420;-73
2022/11/04 09:10:57;;;;;;;2.78;0.90;;;11.10;99.90;;;;;;5013220;28;20046;-72
2022/11/04 09:13:22;;;;;;;3.30;1.00;;;11.00;99.90;;;;;;4998763;28;20037;-72
2022/11/04 09:15:48;;;;;;;3.30;1.10;;;11.20;99.90;;;;;;5015030;28;20038;-72
2022/11/04 09:18:14;;;;;;;3.10;1.20;;;11.20;99.90;;;;;;5014898;28;20404;-72
2022/11/04 09:20:41;;;;;;;3.72;1.88;;;11.20;99.90;;;;;;5015149;28;20050;-72
2022/11/04 09:23:07;;;;;;;8.52;1.23;;;11.00;99.90;;;;;;5016298;28;20169;-72
2022/11/04 09:25:33;;;;;;;2.47;1.10;;;11.20;99.90;;;;;;5019820;28;20124;-72
2022/11/04 09:27:59;;;;;;;3.42;0.88;;;11.10;99.90;;;;;;5015025;28;20129;-72
2022/11/04 09:30:25;;;;;;;1.20;0.80;;;11.00;99.90;;;;;;5012858;28;20144;-72
2022/11/04 09:32:51;;;;;;;2.50;1.10;;;11.10;99.90;;;;;;5014473;28;20041;-73
2022/11/04 09:35:17;;;;;;;3.72;1.00;;;11.20;99.90;;;;;;5016381;28;20443;-72
2022/11/04 09:37:43;;;;;;;3.58;0.77;;;11.10;99.90;;;;;;5028081;23;20129;-73
2022/11/04 09:40:15;;;;;;;6.28;1.20;;;11.20;99.90;;;;;;5022909;28;20059;-73
2022/11/04 09:43:13;;;;;;;4.38;1.17;;;11.20;99.90;;;;;;4975684;28;20038;-75
2022/11/04 09:45:41;;;;;;;4.68;1.40;;;11.20;99.90;;;;;;5008618;28;20098;-75
2022/11/04 09:48:20;;;;;;;3.65;1.02;;;11.30;99.90;;;;;;4992270;28;20103;-76
2022/11/04 09:50:57;;;;;;;3.65;1.02;;;11.30;99.90;;;;;;4992156;28;20129;-75
2022/11/04 09:53:29;;;;;;;2.00;1.05;;;11.40;99.90;;;;;;4991784;28;20515;-74
2022/11/04 09:55:58;;;;;;;3.60;0.70;;;11.30;99.90;;;;;;4993362;28;20042;-75
2022/11/04 09:58:24;;;;;;;10.02;1.48;;;11.50;99.90;;;;;;4991979;28;20509;-74
2022/11/04 10:01:14;;;;;;;2.67;1.00;;;11.30;99.90;;;;;;4993234;28;20042;-75
2022/11/04 10:04:11;;;;;;;3.60;1.05;;;11.40;99.90;;;;;;4992918;28;20046;-76
2022/11/04 10:06:49;;;;;;;1.95;1.17;;;11.40;99.90;;;;;;4992670;28;20042;-74
2022/11/04 10:09:26;;;;;;;2.90;0.93;;;11.60;99.90;;;;;;4978004;28;20046;-75
2022/11/04 10:12:15;;;;;;;3.92;1.10;;;11.50;99.90;;;;;;4994611;28;20133;-75
2022/11/04 10:14:46;;;;;;;3.65;1.00;;;11.60;99.90;;;;;;4992915;28;20034;-75
2022/11/04 10:17:31;;;;;;;7.18;1.10;;;11.70;99.90;;;;;;4975639;28;20129;-75
2022/11/04 10:20:18;;;;;;;5.65;1.73;;;11.70;99.90;;;;;;4991670;28;20042;-75
2022/11/04 10:23:13;;;;;;;3.95;1.40;;;11.80;99.90;;;;;;4975455;28;20050;-75
2022/11/04 10:25:56;;;;;;;3.92;1.02;;;11.80;99.90;;;;;;4991577;28;20408;-75
2022/11/04 10:28:45;;;;;;;6.93;1.10;;;11.80;99.90;;;;;;4992246;28;20042;-75
2022/11/04 10:31:14;;;;;;;5.47;1.02;;;11.70;99.90;;;;;;4990585;28;20516;-75
2022/11/04 10:33:45;;;;;;;3.88;1.20;;;11.70;99.90;;;;;;4974541;28;20173;-76
2022/11/04 10:36:14;;;;;;;6.15;1.08;;;11.70;99.90;;;;;;4991359;28;20088;-74
2022/11/04 10:38:55;;;;;;;4.47;1.60;;;11.80;99.90;;;;;;4991530;28;20089;-76
2022/11/04 10:41:33;;;;;;;4.10;1.08;;;11.70;99.90;;;;;;4975544;28;20399;-75
2022/11/04 10:44:07;;;;;;;5.80;1.48;;;11.80;99.90;;;;;;4991085;28;20085;-74
2022/11/04 10:46:52;;;;;;;6.22;1.25;;;11.90;99.90;;;;;;4975032;28;20108;-75
2022/11/04 10:49:47;;;;;;;4.90;1.02;;;11.90;99.90;;;;;;4991495;28;20034;-74
2022/11/04 10:52:13;;;;;;;9.88;1.45;;;12.10;99.90;;;;;;4991455;28;20104;-75
2022/11/04 10:54:47;;;;;;;3.55;0.90;;;12.10;99.90;;;;;;4990929;28;20042;-75
2022/11/04 10:57:25;;;;;;;3.22;0.93;;;12.30;99.90;;;;;;4993363;28;20068;-75
2022/11/04 10:59:56;;;;;;;5.95;1.58;;;12.30;99.90;;;;;;5010550;28;20044;-74
2022/11/04 11:02:40;;;;;;;4.65;1.00;;;12.30;99.90;;;;;;5011803;28;20026;-75
2022/11/04 11:05:30;;;;;;;5.32;1.10;;;12.50;99.90;;;;;;5012140;28;20117;-75
2022/11/04 11:07:57;;;;;;;7.22;1.30;;;12.40;99.90;;;;;;5010469;28;20049;-76
2022/11/04 11:10:28;;;;;;;5.72;1.38;;;12.30;99.90;;;;;;5010685;28;20042;-75
2022/11/04 11:13:06;;;;;;;2.47;0.75;;;12.50;99.90;;;;;;5011720;28;20065;-75
2022/11/04 11:15:37;;;;;;;3.92;1.00;;;12.50;99.90;;;;;;5011689;28;20595;-75
2022/11/04 11:18:12;;;;;;;7.72;1.60;;;12.40;99.90;;;;;;5011820;28;20042;-75
2022/11/04 11:20:39;;;;;;;5.60;1.55;;;12.60;99.90;;;;;;5011663;28;20045;-75
2022/11/04 11:23:25;;;;;;;4.70;1.30;;;12.60;99.90;;;;;;4993785;28;20396;-76
2022/11/04 11:25:51;;;;;;;3.83;0.93;;;12.70;99.90;;;;;;5010725;28;20412;-75
2022/11/04 11:28:23;;;;;;;7.63;1.20;;;12.50;99.90;;;;;;5011647;28;20037;-76
2022/11/04 11:31:03;;;;;;;10.82;1.70;;;12.50;99.90;;;;;;5011583;28;20046;-75
2022/11/04 11:33:35;;;;;;;4.97;1.40;;;12.70;99.90;;;;;;5011486;28;20058;-74
2022/11/04 11:36:11;;;;;;;6.38;0.95;;;12.70;99.90;;;;;;5011526;28;20393;-74
2022/11/04 11:38:50;;;;;;;3.10;1.17;;;12.80;99.90;;;;;;5010166;28;20464;-74
2022/11/04 11:41:17;;;;;;;3.95;0.90;;;12.70;99.90;;;;;;5010220;28;20487;-74
2022/11/04 11:43:48;;;;;;;8.98;1.58;;;12.80;99.90;;;;;;5011844;28;20161;-75
2022/11/04 11:46:24;;;;;;;5.53;1.42;;;12.90;99.90;;;;;;5014024;28;20046;-74
2022/11/04 11:48:52;;;;;;;5.07;0.90;;;12.80;99.90;;;;;;5014008;28;20042;-75
2022/11/04 11:51:30;;;;;;;9.25;1.40;;;12.80;99.90;;;;;;5013878;28;20041;-74
2022/11/04 11:54:16;;;;;;;5.28;1.55;;;12.70;99.90;;;;;;4997548;28;20053;-74
2022/11/04 11:56:53;;;;;;;4.53;0.82;;;12.80;99.90;;;;;;5013654;28;20043;-74
2022/11/04 11:59:26;;;;;;;3.55;1.05;;;13.00;99.90;;;;;;5015061;28;20129;-74
2022/11/04 12:02:11;;;;;;;4.03;1.20;;;12.90;99.90;;;;;;5015036;28;20117;-74
2022/11/04 12:04:37;;;;;;;7.97;1.88;;;12.90;99.90;;;;;;5013452;28;20128;-74
2022/11/04 12:07:18;;;;;;;6.32;1.02;;;12.90;99.90;;;;;;5013750;28;20104;-74
2022/11/04 12:10:31;;;;;;;5.47;1.00;;;13.00;99.90;;;;;;5015061;28;20045;-75
2022/11/04 12:13:15;;;;;;;2.80;0.80;;;12.90;99.90;;;;;;4972646;28;20056;-74
2022/11/04 12:15:52;;;;;;;4.43;1.20;;;12.70;99.90;;;;;;5028049;28;20069;-75
2022/11/04 12:18:49;;;;;;;5.53;1.27;;;12.50;99.90;;;;;;5033455;28;20042;-75
2022/11/04 12:21:35;;;;;;;4.00;0.90;;;12.20;99.90;;;;;;5027044;28;20038;-74
2022/11/04 12:24:19;;;;;;;3.75;0.80;;;11.90;99.90;;;;;;5026000;28;20029;-74
2022/11/04 12:27:31;;;;;;;4.45;1.13;;;11.80;99.90;;;;;;5034456;28;20120;-74
2022/11/04 12:30:16;;;;;;;4.03;0.95;;;11.80;99.90;;;;;;5049996;28;20139;-75
2022/11/04 12:33:03;;;;;;;8.82;1.75;;;11.90;99.90;;;;;;5032666;28;20049;-76
2022/11/04 12:35:54;;;;;;;7.60;1.15;;;11.80;99.90;;;;;;5032916;28;20049;-75
2022/11/04 12:38:47;;;;;;;3.70;0.75;;;11.90;99.90;;;;;;5032827;28;20125;-76
2022/11/04 12:41:36;;;;;;;2.20;0.80;;;12.10;99.90;;;;;;5032868;28;20495;-75
2022/11/04 12:44:41;;;;;;;3.65;0.63;;;12.00;99.90;;;;;;5032514;28;20125;-75
2022/11/04 12:47:35;;;;;;;7.97;0.80;;;12.00;99.90;;;;;;5032958;28;20049;-75
2022/11/04 12:50:34;;;;;;;2.25;0.40;;;12.00;99.90;;;;;;5032643;28;20041;-75
2022/11/04 12:53:18;;;;;;;3.72;0.70;;;12.00;99.90;;;;;;5033895;28;20046;-75
2022/11/04 12:55:46;;;;;;;6.10;1.38;;;12.00;99.90;;;;;;5031579;28;20482;-75
2022/11/04 12:58:31;;;;;;;4.05;0.73;;;12.00;99.90;;;;;;5032775;28;20468;-74
2022/11/04 13:01:01;;;;;;;3.03;0.60;;;12.00;99.90;;;;;;5033945;28;20120;-74
2022/11/04 13:03:34;;;;;;;2.35;0.77;;;12.00;99.90;;;;;;5032168;28;20096;-75
2022/11/04 13:06:26;;;;;;;2.55;0.75;;;12.10;99.90;;;;;;5033678;28;20042;-74
2022/11/04 13:08:54;;;;;;;5.80;1.40;;;12.20;99.90;;;;;;5032743;28;20041;-75
2022/11/04 13:11:39;;;;;;;5.53;1.20;;;12.20;99.90;;;;;;5032325;28;20507;-75
2022/11/04 13:14:28;;;;;;;3.20;0.98;;;12.30;99.90;;;;;;5032406;28;20631;-76
2022/11/04 13:16:59;;;;;;;3.80;0.60;;;12.30;99.90;;;;;;5032232;28;20407;-75
2022/11/04 13:19:34;;;;;;;5.20;1.13;;;12.30;99.90;;;;;;5032602;28;20045;-75
2022/11/04 13:22:07;;;;;;;4.22;0.75;;;12.20;99.90;;;;;;5032961;28;20060;-76
2022/11/04 13:24:37;;;;;;;3.92;0.80;;;12.20;99.90;;;;;;5033238;28;20038;-75
2022/11/04 13:27:20;;;;;;;2.45;0.65;;;12.10;99.90;;;;;;5032937;28;20037;-76
2022/11/04 13:29:49;;;;;;;3.93;1.30;;;12.10;99.90;;;;;;5033195;28;20063;-75
2022/11/04 13:32:24;;;;;;;2.03;0.70;;;12.00;99.90;;;;;;5033305;28;20096;-76
2022/11/04 13:35:15;;;;;;;2.58;0.73;;;11.90;99.90;;;;;;5031826;28;20053;-76
2022/11/04 13:37:58;;;;;;;5.85;0.93;;;11.90;99.90;;;;;;5032976;28;20041;-75
2022/11/04 13:40:41;;;;;;;3.53;0.93;;;11.80;99.90;;;;;;5031769;28;20048;-75
2022/11/04 13:43:37;;;;;;;3.63;0.88;;;11.80;99.90;;;;;;5031452;28;20507;-75